首页
METAR-TAF:

METAR-TAF

机场 :

Kimble County Airport

Junction, 得克萨斯州, 美国

纬度: 30-30-39N, 经度: 099-45-59W, 海拔: 527米

当前天气观测

该预报发布于51分钟前的22:51 UTC
风速10节,风向南转西南
温度 36°C
湿度 35%
气压 1014 hPa
能見度: 16.1公里
天空无云

METAR: KJCT 152251Z AUTO 20010KT 10SM CLR 36/18 A2995 RMK AO2 SLP101 T03610178

时间: 18:42 (23:42 UTC)

预报

该预报发布于6小时和22分钟前的17:20 UTC
预报有效从15日的 18点(UTC)到 16日的 18点(UTC)
风速12节,风向,有时为20节阵风
能見度: 10公里
少量云层高于4000英尺
从 16日的 0200点(UTC)
风速6节,风向
能見度: 10公里
天空无云
从 16日的 1500点(UTC)
风速10节,风向,有时为17节阵风
能見度: 10公里
天空无云

TAF: KJCT 151720Z 1518/1618 18012G20KT P6SM FEW040 FM160200 18006KT P6SM SKC FM161500 18010G17KT P6SM SKC

超过4000个机场的气象观测和天气预报(METAR&TAF报告)。

可查询的气象台以黄色和红色小点在地图上表示。

将鼠标移到小点上方,可查看气象台名称。

然后点击查看天气观测和预报。

如需切换地图:点击带黑十字的绿色按钮放大地图;点击带横线的绿色按钮缩小地图;或者点击绿色箭头查看邻近地区的地图。


METAR-TAF: